sensor_id;sensor_type;location;lat;lon;timestamp;pressure;altitude;pressure_sealevel;temperature;humidity
22743;BME280;11538;48.884;8.696;2024-03-08T00:02:15;98631.16;;;5.05;100.00
22743;BME280;11538;48.884;8.696;2024-03-08T00:04:42;98625.78;;;5.00;100.00
22743;BME280;11538;48.884;8.696;2024-03-08T00:07:09;98628.75;;;4.98;100.00
22743;BME280;11538;48.884;8.696;2024-03-08T00:09:36;98634.38;;;4.97;100.00
22743;BME280;11538;48.884;8.696;2024-03-08T00:12:03;98630.06;;;4.96;100.00
22743;BME280;11538;48.884;8.696;2024-03-08T00:14:30;98626.03;;;4.88;100.00
22743;BME280;11538;48.884;8.696;2024-03-08T00:16:57;98626.03;;;4.83;100.00
22743;BME280;11538;48.884;8.696;2024-03-08T00:19:24;98627.88;;;4.77;100.00
22743;BME280;11538;48.884;8.696;2024-03-08T00:21:51;98630.03;;;4.80;100.00
22743;BME280;11538;48.884;8.696;2024-03-08T00:24:18;98622.81;;;4.81;100.00
22743;BME280;11538;48.884;8.696;2024-03-08T00:26:45;98626.03;;;4.83;100.00
22743;BME280;11538;48.884;8.696;2024-03-08T00:29:12;98624.41;;;4.77;100.00
22743;BME280;11538;48.884;8.696;2024-03-08T00:31:39;98624.94;;;4.68;100.00
22743;BME280;11538;48.884;8.696;2024-03-08T00:34:06;98620.34;;;4.69;100.00
22743;BME280;11538;48.884;8.696;2024-03-08T00:36:33;98617.13;;;4.67;100.00
22743;BME280;11538;48.884;8.696;2024-03-08T00:39:00;98611.69;;;4.51;100.00
22743;BME280;11538;48.884;8.696;2024-03-08T00:41:28;98609.53;;;4.48;100.00
22743;BME280;11538;48.884;8.696;2024-03-08T00:43:55;98606.53;;;4.39;100.00
22743;BME280;11538;48.884;8.696;2024-03-08T00:46:22;98605.19;;;4.32;100.00
22743;BME280;11538;48.884;8.696;2024-03-08T00:48:49;98606.47;;;4.19;100.00
22743;BME280;11538;48.884;8.696;2024-03-08T00:51:16;98612.09;;;4.17;100.00
22743;BME280;11538;48.884;8.696;2024-03-08T00:53:43;98602.91;;;4.03;100.00
22743;BME280;11538;48.884;8.696;2024-03-08T00:56:10;98599.94;;;3.99;100.00
22743;BME280;11538;48.884;8.696;2024-03-08T00:58:37;98593.72;;;3.93;100.00
22743;BME280;11538;48.884;8.696;2024-03-08T01:01:04;98594.50;;;3.84;100.00
22743;BME280;11538;48.884;8.696;2024-03-08T01:03:31;98594.69;;;3.77;100.00
22743;BME280;11538;48.884;8.696;2024-03-08T01:05:58;98590.44;;;3.81;100.00
22743;BME280;11538;48.884;8.696;2024-03-08T01:08:28;98585.00;;;3.71;100.00
22743;BME280;11538;48.884;8.696;2024-03-08T01:10:55;98579.66;;;3.71;100.00
22743;BME280;11538;48.884;8.696;2024-03-08T01:13:22;98586.16;;;3.85;100.00
22743;BME280;11538;48.884;8.696;2024-03-08T01:15:49;98585.13;;;3.91;100.00
22743;BME280;11538;48.884;8.696;2024-03-08T01:18:16;98577.06;;;3.91;100.00
22743;BME280;11538;48.884;8.696;2024-03-08T01:20:43;98580.03;;;3.90;100.00
22743;BME280;11538;48.884;8.696;2024-03-08T01:23:10;98577.25;;;3.69;100.00
22743;BME280;11538;48.884;8.696;2024-03-08T01:25:37;98568.31;;;3.58;100.00
22743;BME280;11538;48.884;8.696;2024-03-08T01:28:04;98570.94;;;3.48;100.00
22743;BME280;11538;48.884;8.696;2024-03-08T01:30:31;98559.38;;;3.42;100.00
22743;BME280;11538;48.884;8.696;2024-03-08T01:33:00;98558.56;;;3.42;100.00
22743;BME280;11538;48.884;8.696;2024-03-08T01:35:27;98564.47;;;3.44;100.00
22743;BME280;11538;48.884;8.696;2024-03-08T01:37:54;98557.78;;;3.46;100.00
22743;BME280;11538;48.884;8.696;2024-03-08T01:40:21;98555.66;;;3.48;100.00
22743;BME280;11538;48.884;8.696;2024-03-08T01:42:49;98551.03;;;3.39;100.00
22743;BME280;11538;48.884;8.696;2024-03-08T01:45:16;98555.81;;;3.31;100.00
22743;BME280;11538;48.884;8.696;2024-03-08T01:47:45;98548.28;;;3.28;100.00
22743;BME280;11538;48.884;8.696;2024-03-08T01:50:15;98546.69;;;3.32;100.00
22743;BME280;11538;48.884;8.696;2024-03-08T01:52:43;98542.63;;;3.30;100.00
22743;BME280;11538;48.884;8.696;2024-03-08T01:55:10;98547.16;;;3.24;100.00
22743;BME280;11538;48.884;8.696;2024-03-08T01:57:37;98543.13;;;3.21;100.00
22743;BME280;11538;48.884;8.696;2024-03-08T02:00:06;98536.09;;;3.15;100.00
22743;BME280;11538;48.884;8.696;2024-03-08T02:02:33;98532.59;;;3.10;100.00
22743;BME280;11538;48.884;8.696;2024-03-08T02:05:01;98529.66;;;3.11;100.00
22743;BME280;11538;48.884;8.696;2024-03-08T02:07:29;98521.56;;;3.06;100.00
22743;BME280;11538;48.884;8.696;2024-03-08T02:09:55;98510.59;;;3.07;100.00
22743;BME280;11538;48.884;8.696;2024-03-08T02:12:23;98509.19;;;3.00;100.00
22743;BME280;11538;48.884;8.696;2024-03-08T02:14:50;98498.25;;;3.01;100.00
22743;BME280;11538;48.884;8.696;2024-03-08T02:17:17;98505.75;;;3.04;100.00
22743;BME280;11538;48.884;8.696;2024-03-08T02:19:44;98505.72;;;2.99;100.00
22743;BME280;11538;48.884;8.696;2024-03-08T02:22:11;98501.31;;;2.83;100.00
22743;BME280;11538;48.884;8.696;2024-03-08T02:24:38;98498.13;;;2.86;100.00
22743;BME280;11538;48.884;8.696;2024-03-08T02:27:05;98497.66;;;2.94;100.00
22743;BME280;11538;48.884;8.696;2024-03-08T02:29:33;98488.59;;;3.00;100.00
22743;BME280;11538;48.884;8.696;2024-03-08T02:32:00;98494.50;;;3.02;100.00
22743;BME280;11538;48.884;8.696;2024-03-08T02:34:27;98487.75;;;3.00;100.00
22743;BME280;11538;48.884;8.696;2024-03-08T02:36:54;98487.75;;;3.00;100.00
22743;BME280;11538;48.884;8.696;2024-03-08T02:39:23;98483.72;;;2.92;100.00
22743;BME280;11538;48.884;8.696;2024-03-08T02:41:50;98487.13;;;2.87;100.00
22743;BME280;11538;48.884;8.696;2024-03-08T02:44:17;98488.25;;;2.91;100.00
22743;BME280;11538;48.884;8.696;2024-03-08T02:46:43;98489.03;;;2.87;100.00
22743;BME280;11538;48.884;8.696;2024-03-08T02:49:10;98486.53;;;2.80;100.00
22743;BME280;11538;48.884;8.696;2024-03-08T02:51:38;98475.06;;;2.85;100.00
22743;BME280;11538;48.884;8.696;2024-03-08T02:54:05;98471.88;;;2.88;100.00
22743;BME280;11538;48.884;8.696;2024-03-08T02:56:32;98475.31;;;2.83;100.00
22743;BME280;11538;48.884;8.696;2024-03-08T02:59:01;98469.59;;;2.69;100.00
22743;BME280;11538;48.884;8.696;2024-03-08T03:01:29;98471.78;;;2.72;100.00
22743;BME280;11538;48.884;8.696;2024-03-08T03:03:55;98469.09;;;2.72;100.00
22743;BME280;11538;48.884;8.696;2024-03-08T03:06:22;98463.50;;;2.79;100.00
22743;BME280;11538;48.884;8.696;2024-03-08T03:08:49;98472.31;;;2.74;100.00
22743;BME280;11538;48.884;8.696;2024-03-08T03:11:18;98468.53;;;2.70;100.00
22743;BME280;11538;48.884;8.696;2024-03-08T03:13:45;98463.47;;;2.74;100.00
22743;BME280;11538;48.884;8.696;2024-03-08T03:16:19;98463.16;;;2.65;100.00
22743;BME280;11538;48.884;8.696;2024-03-08T03:18:49;98462.78;;;2.56;100.00
22743;BME280;11538;48.884;8.696;2024-03-08T03:21:16;98462.78;;;2.56;100.00
22743;BME280;11538;48.884;8.696;2024-03-08T03:23:44;98448.34;;;2.57;100.00
22743;BME280;11538;48.884;8.696;2024-03-08T03:26:11;98450.16;;;2.52;100.00
22743;BME280;11538;48.884;8.696;2024-03-08T03:28:39;98452.00;;;2.46;100.00
22743;BME280;11538;48.884;8.696;2024-03-08T03:31:07;98446.78;;;2.34;100.00
22743;BME280;11538;48.884;8.696;2024-03-08T03:33:36;98442.75;;;2.31;100.00
22743;BME280;11538;48.884;8.696;2024-03-08T03:36:06;98447.91;;;2.38;100.00
22743;BME280;11538;48.884;8.696;2024-03-08T03:38:35;98438.28;;;2.42;100.00
22743;BME280;11538;48.884;8.696;2024-03-08T03:41:02;98440.72;;;2.44;100.00
22743;BME280;11538;48.884;8.696;2024-03-08T03:43:37;98445.56;;;2.47;100.00
22743;BME280;11538;48.884;8.696;2024-03-08T03:46:08;98435.94;;;2.46;100.00
22743;BME280;11538;48.884;8.696;2024-03-08T03:48:38;98435.63;;;2.42;100.00
22743;BME280;11538;48.884;8.696;2024-03-08T03:51:05;98438.81;;;2.39;100.00
22743;BME280;11538;48.884;8.696;2024-03-08T03:53:32;98429.13;;;2.33;100.00
22743;BME280;11538;48.884;8.696;2024-03-08T03:55:59;98431.66;;;2.17;100.00
22743;BME280;11538;48.884;8.696;2024-03-08T03:58:26;98425.78;;;2.21;100.00
22743;BME280;11538;48.884;8.696;2024-03-08T04:00:54;98426.94;;;2.30;100.00
22743;BME280;11538;48.884;8.696;2024-03-08T04:03:20;98426.47;;;2.38;100.00
22743;BME280;11538;48.884;8.696;2024-03-08T04:05:48;98428.31;;;2.32;100.00
22743;BME280;11538;48.884;8.696;2024-03-08T04:08:15;98420.84;;;2.34;100.00
22743;BME280;11538;48.884;8.696;2024-03-08T04:10:44;98423.25;;;2.36;100.00
22743;BME280;11538;48.884;8.696;2024-03-08T04:13:11;98419.94;;;2.24;100.00
22743;BME280;11538;48.884;8.696;2024-03-08T04:15:38;98422.56;;;2.18;100.00
22743;BME280;11538;48.884;8.696;2024-03-08T04:18:05;98422.66;;;2.29;100.00
22743;BME280;11538;48.884;8.696;2024-03-08T04:20:32;98419.44;;;2.27;100.00
22743;BME280;11538;48.884;8.696;2024-03-08T04:22:59;98416.75;;;2.27;100.00
22743;BME280;11538;48.884;8.696;2024-03-08T04:25:26;98411.56;;;2.15;100.00
22743;BME280;11538;48.884;8.696;2024-03-08T04:27:53;98412.38;;;2.15;100.00
22743;BME280;11538;48.884;8.696;2024-03-08T04:30:20;98415.66;;;2.23;100.00
22743;BME280;11538;48.884;8.696;2024-03-08T04:32:48;98415.13;;;2.26;100.00
22743;BME280;11538;48.884;8.696;2024-03-08T04:35:18;98416.03;;;2.37;100.00
22743;BME280;11538;48.884;8.696;2024-03-08T04:37:46;98410.22;;;2.45;100.00
22743;BME280;11538;48.884;8.696;2024-03-08T04:40:13;98411.72;;;2.30;100.00
22743;BME280;11538;48.884;8.696;2024-03-08T04:42:42;98414.38;;;2.30;100.00
22743;BME280;11538;48.884;8.696;2024-03-08T04:45:09;98407.84;;;2.16;100.00
22743;BME280;11538;48.884;8.696;2024-03-08T04:47:38;98409.19;;;2.18;100.00
22743;BME280;11538;48.884;8.696;2024-03-08T04:50:06;98403.28;;;2.16;100.00
22743;BME280;11538;48.884;8.696;2024-03-08T04:52:33;98401.94;;;2.14;100.00
22743;BME280;11538;48.884;8.696;2024-03-08T04:55:00;98398.75;;;2.17;100.00
22743;BME280;11538;48.884;8.696;2024-03-08T04:57:27;98398.38;;;2.08;100.00
22743;BME280;11538;48.884;8.696;2024-03-08T04:59:54;98395.56;;;1.93;100.00
22743;BME280;11538;48.884;8.696;2024-03-08T05:02:21;98400.03;;;1.87;100.00
22743;BME280;11538;48.884;8.696;2024-03-08T05:04:49;98393.84;;;1.81;100.00
22743;BME280;11538;48.884;8.696;2024-03-08T05:07:17;98386.66;;;1.87;100.00
22743;BME280;11538;48.884;8.696;2024-03-08T05:09:44;98389.22;;;1.99;100.00
22743;BME280;11538;48.884;8.696;2024-03-08T05:12:18;98385.72;;;1.98;100.00
22743;BME280;11538;48.884;8.696;2024-03-08T05:14:46;98383.50;;;1.90;100.00
22743;BME280;11538;48.884;8.696;2024-03-08T05:17:16;98393.41;;;1.89;100.00
22743;BME280;11538;48.884;8.696;2024-03-08T05:19:44;98387.84;;;1.96;100.00
22743;BME280;11538;48.884;8.696;2024-03-08T05:22:11;98381.19;;;1.99;100.00
22743;BME280;11538;48.884;8.696;2024-03-08T05:24:37;98381.19;;;1.99;100.00
22743;BME280;11538;48.884;8.696;2024-03-08T05:27:04;98380.31;;;1.93;100.00
22743;BME280;11538;48.884;8.696;2024-03-08T05:29:32;98386.44;;;1.88;100.00
22743;BME280;11538;48.884;8.696;2024-03-08T05:32:00;98373.13;;;1.94;100.00
22743;BME280;11538;48.884;8.696;2024-03-08T05:34:27;98374.91;;;1.88;100.00
22743;BME280;11538;48.884;8.696;2024-03-08T05:36:55;98375.38;;;1.80;100.00
22743;BME280;11538;48.884;8.696;2024-03-08T05:39:22;98375.91;;;1.82;100.00
22743;BME280;11538;48.884;8.696;2024-03-08T05:41:50;98375.41;;;1.85;100.00
22743;BME280;11538;48.884;8.696;2024-03-08T05:44:17;98379.47;;;1.87;100.00
22743;BME280;11538;48.884;8.696;2024-03-08T05:46:45;98370.13;;;1.90;100.00
22743;BME280;11538;48.884;8.696;2024-03-08T05:49:14;98376.84;;;1.93;100.00
22743;BME280;11538;48.884;8.696;2024-03-08T05:51:41;98379.81;;;1.96;100.00
22743;BME280;11538;48.884;8.696;2024-03-08T05:54:10;98372.59;;;1.97;100.00
22743;BME280;11538;48.884;8.696;2024-03-08T05:56:41;98372.78;;;1.90;100.00
22743;BME280;11538;48.884;8.696;2024-03-08T05:59:11;98374.16;;;1.93;100.00
22743;BME280;11538;48.884;8.696;2024-03-08T06:01:38;98375.78;;;1.94;100.00
22743;BME280;11538;48.884;8.696;2024-03-08T06:04:09;98371.44;;;1.87;100.00
22743;BME280;11538;48.884;8.696;2024-03-08T06:06:38;98373.50;;;1.80;100.00
22743;BME280;11538;48.884;8.696;2024-03-08T06:09:05;98378.53;;;1.77;100.00
22743;BME280;11538;48.884;8.696;2024-03-08T06:11:44;98375.88;;;1.77;100.00
22743;BME280;11538;48.884;8.696;2024-03-08T06:14:12;98366.84;;;1.83;100.00
22743;BME280;11538;48.884;8.696;2024-03-08T06:16:38;98376.25;;;1.85;100.00
22743;BME280;11538;48.884;8.696;2024-03-08T06:19:05;98370.38;;;1.88;100.00
22743;BME280;11538;48.884;8.696;2024-03-08T06:21:32;98372.00;;;1.89;100.00
22743;BME280;11538;48.884;8.696;2024-03-08T06:23:59;98372.50;;;1.86;100.00
22743;BME280;11538;48.884;8.696;2024-03-08T06:26:27;98367.66;;;1.83;100.00
22743;BME280;11538;48.884;8.696;2024-03-08T06:28:58;98372.00;;;1.89;100.00
22743;BME280;11538;48.884;8.696;2024-03-08T06:31:25;98365.22;;;1.82;100.00
22743;BME280;11538;48.884;8.696;2024-03-08T06:33:52;98362.81;;;1.80;100.00
22743;BME280;11538;48.884;8.696;2024-03-08T06:36:22;98364.47;;;1.86;100.00
22743;BME280;11538;48.884;8.696;2024-03-08T06:38:50;98365.03;;;1.88;100.00
22743;BME280;11538;48.884;8.696;2024-03-08T06:41:17;98374.16;;;1.93;100.00
22743;BME280;11538;48.884;8.696;2024-03-08T06:43:46;98371.78;;;1.96;100.00
22743;BME280;11538;48.884;8.696;2024-03-08T06:46:15;98373.22;;;2.04;100.00
22743;BME280;11538;48.884;8.696;2024-03-08T06:48:42;98371.09;;;2.06;100.00
22743;BME280;11538;48.884;8.696;2024-03-08T06:51:09;98365.50;;;2.08;100.00
22743;BME280;11538;48.884;8.696;2024-03-08T06:53:37;98366.59;;;2.12;100.00
22743;BME280;11538;48.884;8.696;2024-03-08T06:56:05;98362.41;;;2.21;100.00
22743;BME280;11538;48.884;8.696;2024-03-08T06:58:34;98358.44;;;2.29;100.00
22743;BME280;11538;48.884;8.696;2024-03-08T07:01:02;98365.44;;;2.35;100.00
22743;BME280;11538;48.884;8.696;2024-03-08T07:03:31;98363.94;;;2.49;100.00
22743;BME280;11538;48.884;8.696;2024-03-08T07:05:59;98363.44;;;2.58;100.00
22743;BME280;11538;48.884;8.696;2024-03-08T07:08:26;98366.50;;;2.72;100.00
22743;BME280;11538;48.884;8.696;2024-03-08T07:10:54;98362.00;;;2.77;100.00
22743;BME280;11538;48.884;8.696;2024-03-08T07:13:21;98361.22;;;2.87;100.00
22743;BME280;11538;48.884;8.696;2024-03-08T07:15:48;98362.09;;;2.98;100.00
22743;BME280;11538;48.884;8.696;2024-03-08T07:18:15;98358.13;;;3.11;100.00
22743;BME280;11538;48.884;8.696;2024-03-08T07:20:42;98361.63;;;3.12;100.00
22743;BME280;11538;48.884;8.696;2024-03-08T07:23:10;98357.63;;;3.19;100.00
22743;BME280;11538;48.884;8.696;2024-03-08T07:25:37;98354.19;;;3.29;100.00
22743;BME280;11538;48.884;8.696;2024-03-08T07:28:06;98359.06;;;3.38;100.00
22743;BME280;11538;48.884;8.696;2024-03-08T07:30:37;98352.09;;;3.42;100.00
22743;BME280;11538;48.884;8.696;2024-03-08T07:33:11;98353.72;;;3.43;100.00
22743;BME280;11538;48.884;8.696;2024-03-08T07:35:40;98350.25;;;3.47;100.00
22743;BME280;11538;48.884;8.696;2024-03-08T07:38:08;98341.94;;;3.54;100.00
22743;BME280;11538;48.884;8.696;2024-03-08T07:40:40;98340.63;;;3.62;100.00
22743;BME280;11538;48.884;8.696;2024-03-08T07:43:11;98349.22;;;3.64;100.00
22743;BME280;11538;48.884;8.696;2024-03-08T07:45:39;98336.38;;;3.71;100.00
22743;BME280;11538;48.884;8.696;2024-03-08T07:48:06;98343.06;;;3.69;100.00
22743;BME280;11538;48.884;8.696;2024-03-08T07:50:37;98345.75;;;3.79;100.00
22743;BME280;11538;48.884;8.696;2024-03-08T07:53:07;98346.03;;;3.83;100.00
22743;BME280;11538;48.884;8.696;2024-03-08T07:55:35;98342.53;;;3.87;100.00
22743;BME280;11538;48.884;8.696;2024-03-08T07:58:03;98340.16;;;3.91;100.00
22743;BME280;11538;48.884;8.696;2024-03-08T08:00:30;98336.41;;;3.97;100.00
22743;BME280;11538;48.884;8.696;2024-03-08T08:03:00;98338.84;;;4.04;100.00
22743;BME280;11538;48.884;8.696;2024-03-08T08:05:28;98338.81;;;3.99;100.00
22743;BME280;11538;48.884;8.696;2024-03-08T08:07:54;98336.38;;;3.87;100.00
22743;BME280;11538;48.884;8.696;2024-03-08T08:10:23;98338.25;;;3.91;100.00
22743;BME280;11538;48.884;8.696;2024-03-08T08:12:52;98340.16;;;3.86;100.00
22743;BME280;11538;48.884;8.696;2024-03-08T08:15:20;98331.28;;;3.85;100.00
22743;BME280;11538;48.884;8.696;2024-03-08T08:17:47;98330.72;;;3.83;100.00
22743;BME280;11538;48.884;8.696;2024-03-08T08:20:17;98339.06;;;3.92;100.00
22743;BME280;11538;48.884;8.696;2024-03-08T08:22:45;98330.50;;;3.95;100.00
22743;BME280;11538;48.884;8.696;2024-03-08T08:25:12;98322.44;;;4.00;100.00
22743;BME280;11538;48.884;8.696;2024-03-08T08:27:40;98318.44;;;4.13;100.00
22743;BME280;11538;48.884;8.696;2024-03-08T08:30:09;98317.59;;;4.18;100.00
22743;BME280;11538;48.884;8.696;2024-03-08T08:32:38;98314.13;;;4.22;100.00
22743;BME280;11538;48.884;8.696;2024-03-08T08:35:11;98321.09;;;4.29;100.00
22743;BME280;11538;48.884;8.696;2024-03-08T08:37:39;98308.22;;;4.36;100.00
22743;BME280;11538;48.884;8.696;2024-03-08T08:40:07;98307.91;;;4.43;100.00
22743;BME280;11538;48.884;8.696;2024-03-08T08:42:41;98312.19;;;4.54;100.00
22743;BME280;11538;48.884;8.696;2024-03-08T08:45:09;98314.06;;;4.64;100.00
22743;BME280;11538;48.884;8.696;2024-03-08T08:47:46;98317.56;;;4.59;100.00
22743;BME280;11538;48.884;8.696;2024-03-08T08:50:14;98313.00;;;4.60;100.00
22743;BME280;11538;48.884;8.696;2024-03-08T08:52:40;98318.38;;;4.65;100.00
22743;BME280;11538;48.884;8.696;2024-03-08T08:55:10;98306.00;;;4.74;100.00
22743;BME280;11538;48.884;8.696;2024-03-08T08:57:42;98311.38;;;4.69;100.00
22743;BME280;11538;48.884;8.696;2024-03-08T09:00:09;98311.91;;;4.71;100.00
22743;BME280;11538;48.884;8.696;2024-03-08T09:02:42;98315.94;;;4.74;100.00
22743;BME280;11538;48.884;8.696;2024-03-08T09:05:09;98309.19;;;4.81;100.00
22743;BME280;11538;48.884;8.696;2024-03-08T09:07:37;98310.28;;;4.80;100.00
22743;BME280;11538;48.884;8.696;2024-03-08T09:10:04;98304.38;;;4.78;100.00
22743;BME280;11538;48.884;8.696;2024-03-08T09:12:34;98299.25;;;4.87;100.00
22743;BME280;11538;48.884;8.696;2024-03-08T09:15:01;98306.47;;;4.92;100.00
22743;BME280;11538;48.884;8.696;2024-03-08T09:17:28;98299.53;;;4.80;100.00
22743;BME280;11538;48.884;8.696;2024-03-08T09:19:55;98298.47;;;4.76;100.00
22743;BME280;11538;48.884;8.696;2024-03-08T09:22:24;98309.22;;;4.76;100.00
22743;BME280;11538;48.884;8.696;2024-03-08T09:24:52;98289.03;;;4.84;100.00
22743;BME280;11538;48.884;8.696;2024-03-08T09:27:19;98288.50;;;4.82;100.00
22743;BME280;11538;48.884;8.696;2024-03-08T09:29:46;98296.00;;;4.95;100.00
22743;BME280;11538;48.884;8.696;2024-03-08T09:32:13;98286.88;;;4.86;100.00
22743;BME280;11538;48.884;8.696;2024-03-08T09:34:40;98282.63;;;4.80;100.00
22743;BME280;11538;48.884;8.696;2024-03-08T09:37:07;98281.22;;;4.93;100.00
22743;BME280;11538;48.884;8.696;2024-03-08T09:39:35;98286.59;;;4.88;100.00
22743;BME280;11538;48.884;8.696;2024-03-08T09:42:02;98288.75;;;4.86;100.00
22743;BME280;11538;48.884;8.696;2024-03-08T09:44:30;98283.66;;;4.84;100.00
22743;BME280;11538;48.884;8.696;2024-03-08T09:46:58;98287.44;;;4.83;100.00
22743;BME280;11538;48.884;8.696;2024-03-08T09:49:26;98289.28;;;4.93;100.00
22743;BME280;11538;48.884;8.696;2024-03-08T09:51:54;98286.03;;;4.96;100.00
22743;BME280;11538;48.884;8.696;2024-03-08T09:54:23;98281.97;;;5.04;100.00
22743;BME280;11538;48.884;8.696;2024-03-08T09:56:52;98287.59;;;5.07;100.00
22743;BME280;11538;48.884;8.696;2024-03-08T09:59:19;98291.44;;;4.91;100.00
22743;BME280;11538;48.884;8.696;2024-03-08T10:02:14;98271.47;;;5.07;100.00
22743;BME280;11538;48.884;8.696;2024-03-08T10:04:42;98267.59;;;5.29;100.00
22743;BME280;11538;48.884;8.696;2024-03-08T10:07:09;98266.53;;;5.25;100.00
22743;BME280;11538;48.884;8.696;2024-03-08T10:09:36;98266.84;;;5.18;100.00
22743;BME280;11538;48.884;8.696;2024-03-08T10:12:05;98265.25;;;5.17;100.00
22743;BME280;11538;48.884;8.696;2024-03-08T10:14:32;98261.19;;;5.20;100.00
22743;BME280;11538;48.884;8.696;2024-03-08T10:16:59;98261.16;;;5.25;100.00
22743;BME280;11538;48.884;8.696;2024-03-08T10:19:28;98259.56;;;5.24;100.00
22743;BME280;11538;48.884;8.696;2024-03-08T10:21:57;98242.00;;;5.37;100.00
22743;BME280;11538;48.884;8.696;2024-03-08T10:24:26;98245.72;;;5.46;100.00
22743;BME280;11538;48.884;8.696;2024-03-08T10:27:03;98238.81;;;5.35;100.00
22743;BME280;11538;48.884;8.696;2024-03-08T10:29:33;98241.22;;;5.36;100.00
22743;BME280;11538;48.884;8.696;2024-03-08T10:32:01;98231.47;;;5.46;100.00
22743;BME280;11538;48.884;8.696;2024-03-08T10:34:29;98233.81;;;5.57;100.00
22743;BME280;11538;48.884;8.696;2024-03-08T10:37:07;98225.66;;;5.68;100.00
22743;BME280;11538;48.884;8.696;2024-03-08T10:39:37;98233.34;;;5.85;100.00
22743;BME280;11538;48.884;8.696;2024-03-08T10:42:05;98230.00;;;5.98;100.00
22743;BME280;11538;48.884;8.696;2024-03-08T10:45:06;98224.31;;;6.05;100.00
22743;BME280;11538;48.884;8.696;2024-03-08T10:47:41;98216.41;;;6.14;100.00
22743;BME280;11538;48.884;8.696;2024-03-08T10:50:19;98219.09;;;6.14;100.00
22743;BME280;11538;48.884;8.696;2024-03-08T10:52:51;98225.00;;;6.16;100.00
22743;BME280;11538;48.884;8.696;2024-03-08T10:55:19;98220.38;;;6.22;100.00
22743;BME280;11538;48.884;8.696;2024-03-08T10:57:47;98229.56;;;6.21;100.00
22743;BME280;11538;48.884;8.696;2024-03-08T11:00:15;98223.66;;;6.19;100.00
22743;BME280;11538;48.884;8.696;2024-03-08T11:02:45;98224.28;;;6.10;100.00
22743;BME280;11538;48.884;8.696;2024-03-08T11:05:40;98224.16;;;6.21;100.00
22743;BME280;11538;48.884;8.696;2024-03-08T11:08:18;98220.09;;;6.23;100.00
22743;BME280;11538;48.884;8.696;2024-03-08T11:10:53;98216.81;;;6.26;100.00
22743;BME280;11538;48.884;8.696;2024-03-08T11:13:42;98222.56;;;6.20;100.00
22743;BME280;11538;48.884;8.696;2024-03-08T11:16:12;98225.41;;;5.99;100.00
22743;BME280;11538;48.884;8.696;2024-03-08T11:21:58;98207.38;;;5.99;100.00
22743;BME280;11538;48.884;8.696;2024-03-08T11:24:25;98210.34;;;6.27;100.00
22743;BME280;11538;48.884;8.696;2024-03-08T11:26:57;98203.25;;;6.37;100.00
22743;BME280;11538;48.884;8.696;2024-03-08T11:32:11;98200.81;;;6.65;98.98
22743;BME280;11538;48.884;8.696;2024-03-08T11:34:48;98200.28;;;6.63;99.28
22743;BME280;11538;48.884;8.696;2024-03-08T11:37:18;98201.31;;;6.67;99.12
22743;BME280;11538;48.884;8.696;2024-03-08T11:39:53;98190.94;;;6.55;99.61
22743;BME280;11538;48.884;8.696;2024-03-08T11:42:25;98186.50;;;6.64;99.38
22743;BME280;11538;48.884;8.696;2024-03-08T11:44:55;98164.84;;;6.94;98.69
22743;BME280;11538;48.884;8.696;2024-03-08T11:47:22;98168.06;;;6.96;97.39
22743;BME280;11538;48.884;8.696;2024-03-08T11:49:49;98177.50;;;6.93;97.98
22743;BME280;11538;48.884;8.696;2024-03-08T11:52:18;98173.66;;;6.99;99.06
22743;BME280;11538;48.884;8.696;2024-03-08T11:54:52;98165.94;;;7.12;97.78
22743;BME280;11538;48.884;8.696;2024-03-08T11:57:25;98169.00;;;7.05;96.74
22743;BME280;11538;48.884;8.696;2024-03-08T11:59:55;98157.94;;;6.87;97.44
22743;BME280;11538;48.884;8.696;2024-03-08T12:02:26;98165.63;;;6.75;98.76
22743;BME280;11538;48.884;8.696;2024-03-08T12:05:01;98152.84;;;6.62;99.00
22743;BME280;11538;48.884;8.696;2024-03-08T12:07:30;98156.97;;;6.78;99.28
22743;BME280;11538;48.884;8.696;2024-03-08T12:10:19;98152.91;;;7.00;98.28
22743;BME280;11538;48.884;8.696;2024-03-08T12:12:51;98145.59;;;7.00;97.43
22743;BME280;11538;48.884;8.696;2024-03-08T12:15:22;98127.44;;;7.25;96.13
22743;BME280;11538;48.884;8.696;2024-03-08T12:17:54;98121.75;;;7.27;95.60
22743;BME280;11538;48.884;8.696;2024-03-08T12:20:27;98130.69;;;7.41;95.69
22743;BME280;11538;48.884;8.696;2024-03-08T12:22:58;98127.59;;;7.81;93.83
22743;BME280;11538;48.884;8.696;2024-03-08T12:25:33;98106.59;;;9.13;87.60
22743;BME280;11538;48.884;8.696;2024-03-08T12:28:11;98118.94;;;10.14;83.54
22743;BME280;11538;48.884;8.696;2024-03-08T12:30:47;98124.97;;;10.51;80.91
22743;BME280;11538;48.884;8.696;2024-03-08T12:33:15;98112.78;;;11.06;78.61
22743;BME280;11538;48.884;8.696;2024-03-08T12:35:55;98114.16;;;12.22;73.39
22743;BME280;11538;48.884;8.696;2024-03-08T12:38:27;98113.19;;;12.78;70.42
22743;BME280;11538;48.884;8.696;2024-03-08T12:41:04;98107.88;;;13.02;69.25
22743;BME280;11538;48.884;8.696;2024-03-08T12:43:31;98103.03;;;13.29;68.09
22743;BME280;11538;48.884;8.696;2024-03-08T12:45:59;98096.31;;;13.48;61.89
22743;BME280;11538;48.884;8.696;2024-03-08T12:48:26;98100.03;;;13.77;60.65
22743;BME280;11538;48.884;8.696;2024-03-08T12:50:53;98081.31;;;14.00;55.89
22743;BME280;11538;48.884;8.696;2024-03-08T12:53:22;98076.56;;;14.22;54.85
22743;BME280;11538;48.884;8.696;2024-03-08T12:55:50;98074.06;;;14.17;53.94
22743;BME280;11538;48.884;8.696;2024-03-08T12:58:17;98068.59;;;14.29;54.02
22743;BME280;11538;48.884;8.696;2024-03-08T13:00:44;98061.34;;;14.87;52.32
22743;BME280;11538;48.884;8.696;2024-03-08T13:03:12;98048.75;;;15.39;50.71
22743;BME280;11538;48.884;8.696;2024-03-08T13:05:39;98045.75;;;15.44;50.98
22743;BME280;11538;48.884;8.696;2024-03-08T13:08:10;98039.75;;;15.10;50.83
22743;BME280;11538;48.884;8.696;2024-03-08T13:10:40;98033.56;;;14.97;51.05
22743;BME280;11538;48.884;8.696;2024-03-08T13:13:11;98032.00;;;15.12;51.15
22743;BME280;11538;48.884;8.696;2024-03-08T13:15:42;98023.81;;;15.57;49.79